createdAt,value
2022-10-16T00:00:02.875Z,0.00
2022-10-16T00:01:02.808Z,0.00
2022-10-16T00:02:03.380Z,0.00
2022-10-16T00:03:03.240Z,0.00
2022-10-16T00:04:03.166Z,0.00
2022-10-16T00:05:03.003Z,0.00
2022-10-16T00:06:02.923Z,0.00
2022-10-16T00:07:02.509Z,0.00
2022-10-16T00:08:02.099Z,0.00
2022-10-16T00:09:01.908Z,0.00
2022-10-16T00:10:02.308Z,0.00
2022-10-16T00:11:02.019Z,0.00
2022-10-16T00:12:02.853Z,0.00
2022-10-16T00:13:02.364Z,0.00
2022-10-16T00:14:02.874Z,0.00
2022-10-16T00:15:02.757Z,0.00
2022-10-16T00:16:02.657Z,0.00
2022-10-16T00:17:02.509Z,0.00
2022-10-16T00:18:02.599Z,0.00
2022-10-16T00:19:03.080Z,0.00
2022-10-16T00:20:02.878Z,0.00
2022-10-16T00:21:02.529Z,0.00
2022-10-16T00:22:02.216Z,0.00
2022-10-16T00:23:02.778Z,0.00
2022-10-16T00:24:02.421Z,0.00
2022-10-16T00:25:02.136Z,0.00
2022-10-16T00:26:02.728Z,0.00
2022-10-16T00:27:02.372Z,0.00
2022-10-16T00:28:02.656Z,0.00
2022-10-16T00:29:02.650Z,0.00
2022-10-16T00:30:02.577Z,0.00
2022-10-16T00:31:02.290Z,0.00
2022-10-16T00:32:02.775Z,0.00
2022-10-16T00:33:03.314Z,0.00
2022-10-16T00:34:03.170Z,0.00
2022-10-16T00:35:03.076Z,0.00
2022-10-16T00:36:02.918Z,0.00
2022-10-16T00:37:02.486Z,0.00
2022-10-16T00:38:02.959Z,0.00
2022-10-16T00:39:03.247Z,0.00
2022-10-16T00:40:02.915Z,0.00
2022-10-16T00:41:02.845Z,0.00
2022-10-16T00:42:02.624Z,0.00
2022-10-16T00:43:02.651Z,0.00
2022-10-16T00:44:03.092Z,0.00
2022-10-16T00:45:03.085Z,0.00
2022-10-16T00:46:02.611Z,0.00
2022-10-16T00:47:02.396Z,0.00
2022-10-16T00:48:02.321Z,0.00
2022-10-16T00:49:02.293Z,0.00
2022-10-16T00:50:02.703Z,0.00
2022-10-16T00:51:02.254Z,0.00
2022-10-16T00:52:02.723Z,0.00
2022-10-16T00:53:03.227Z,0.00
2022-10-16T00:54:02.672Z,0.00
2022-10-16T00:55:03.163Z,0.00
2022-10-16T00:56:02.962Z,0.00
2022-10-16T00:57:02.872Z,0.00
2022-10-16T00:58:03.055Z,0.00
2022-10-16T00:59:02.665Z,0.00
2022-10-16T01:00:03.170Z,0.00
2022-10-16T01:01:03.256Z,0.00
2022-10-16T01:02:02.718Z,0.00
2022-10-16T01:03:03.115Z,0.00
2022-10-16T01:04:03.008Z,0.00
2022-10-16T01:05:02.720Z,0.00
2022-10-16T01:06:03.077Z,0.00
2022-10-16T01:07:02.826Z,0.00
2022-10-16T01:08:03.329Z,0.00
2022-10-16T01:09:02.980Z,0.00
2022-10-16T01:10:02.860Z,0.00
2022-10-16T01:11:03.244Z,0.00
2022-10-16T01:12:03.026Z,0.00
2022-10-16T01:13:02.915Z,0.00
2022-10-16T01:14:03.440Z,0.00
2022-10-16T01:15:03.312Z,0.00
2022-10-16T01:16:03.112Z,0.00
2022-10-16T01:17:02.637Z,0.00
2022-10-16T01:18:02.494Z,0.00
2022-10-16T01:19:02.505Z,0.00
2022-10-16T01:20:02.969Z,0.00
2022-10-16T01:21:02.926Z,0.00
2022-10-16T01:22:02.713Z,0.00
2022-10-16T01:23:03.172Z,0.00
2022-10-16T01:24:02.706Z,0.00
2022-10-16T01:25:03.191Z,0.00
2022-10-16T01:26:02.733Z,0.00
2022-10-16T01:27:02.354Z,0.00
2022-10-16T01:28:02.139Z,0.00
2022-10-16T01:29:02.634Z,0.00
2022-10-16T01:30:02.228Z,0.00
2022-10-16T01:31:02.711Z,0.00
2022-10-16T01:32:03.306Z,0.00
2022-10-16T01:33:03.091Z,0.00
2022-10-16T01:34:02.958Z,0.00
2022-10-16T01:35:02.778Z,0.00
2022-10-16T01:36:03.353Z,0.00
2022-10-16T01:37:02.617Z,0.00
2022-10-16T01:38:02.493Z,0.00
2022-10-16T01:39:02.920Z,0.00
2022-10-16T01:40:02.553Z,0.00
2022-10-16T01:41:02.743Z,0.00
2022-10-16T01:42:03.140Z,0.00
2022-10-16T01:43:02.984Z,0.00
2022-10-16T01:44:03.534Z,0.00
2022-10-16T01:45:03.537Z,0.00
2022-10-16T01:46:03.110Z,0.00
2022-10-16T01:47:02.747Z,0.00
2022-10-16T01:48:02.806Z,0.00
2022-10-16T01:49:02.739Z,0.00
2022-10-16T01:50:02.612Z,0.00
2022-10-16T01:51:02.423Z,0.00
2022-10-16T01:52:02.909Z,0.00
2022-10-16T01:53:02.931Z,0.00
2022-10-16T01:54:02.767Z,0.00
2022-10-16T01:55:02.731Z,0.00
2022-10-16T01:56:03.236Z,0.00
2022-10-16T01:57:02.528Z,0.00
2022-10-16T01:58:02.321Z,0.00
2022-10-16T01:59:02.757Z,0.00
2022-10-16T02:00:02.407Z,0.00
2022-10-16T02:01:02.388Z,0.00
2022-10-16T02:02:02.890Z,0.00
2022-10-16T02:03:02.701Z,0.00
2022-10-16T02:04:03.180Z,0.00
2022-10-16T02:05:02.740Z,0.00
2022-10-16T02:06:02.809Z,0.00
2022-10-16T02:07:03.545Z,0.00
2022-10-16T02:08:05.550Z,0.00
2022-10-16T02:09:03.564Z,0.00
2022-10-16T02:10:03.118Z,0.00
2022-10-16T02:11:03.138Z,0.00
2022-10-16T02:12:02.659Z,0.00
2022-10-16T02:13:02.280Z,0.00
2022-10-16T02:14:02.861Z,0.00
2022-10-16T02:15:02.374Z,0.00
2022-10-16T02:16:02.852Z,0.00
2022-10-16T02:17:03.005Z,0.00
2022-10-16T02:18:02.815Z,0.00
2022-10-16T02:19:03.224Z,0.00
2022-10-16T02:20:02.642Z,0.00
2022-10-16T02:21:03.157Z,0.00
2022-10-16T02:22:03.332Z,0.00
2022-10-16T02:23:03.022Z,0.00
2022-10-16T02:24:02.951Z,0.00
2022-10-16T02:25:03.430Z,0.00
2022-10-16T02:26:02.861Z,0.00
2022-10-16T02:27:03.372Z,0.00
2022-10-16T02:28:03.318Z,0.00
2022-10-16T02:29:03.228Z,0.00
2022-10-16T02:30:02.888Z,0.00
2022-10-16T02:31:03.447Z,0.00
2022-10-16T02:32:02.723Z,0.00
2022-10-16T02:33:02.602Z,0.00
2022-10-16T02:34:03.123Z,0.00
2022-10-16T02:35:02.720Z,0.00
2022-10-16T02:36:03.164Z,0.00
2022-10-16T02:37:03.067Z,0.00
2022-10-16T02:38:03.469Z,0.00
2022-10-16T02:39:03.376Z,0.00
2022-10-16T02:40:03.280Z,0.00
2022-10-16T02:41:03.394Z,0.00
2022-10-16T02:42:02.949Z,0.00
2022-10-16T02:43:02.773Z,0.00
2022-10-16T02:44:02.575Z,0.00
2022-10-16T02:45:02.466Z,0.00
2022-10-16T02:46:02.556Z,0.00
2022-10-16T02:47:03.131Z,0.00
2022-10-16T02:48:02.710Z,0.00
2022-10-16T02:49:02.515Z,0.00
2022-10-16T02:50:03.126Z,0.00
2022-10-16T02:51:02.734Z,0.00
2022-10-16T02:52:03.205Z,0.00
2022-10-16T02:53:02.549Z,0.00
2022-10-16T02:54:03.021Z,0.00
2022-10-16T02:55:02.937Z,0.00
2022-10-16T02:56:02.778Z,0.00
2022-10-16T02:57:03.245Z,0.00
2022-10-16T02:58:02.810Z,0.00
2022-10-16T02:59:02.735Z,0.00
2022-10-16T03:00:03.177Z,0.00
2022-10-16T03:01:03.106Z,0.00
2022-10-16T03:02:02.288Z,0.00
2022-10-16T03:03:02.161Z,0.00
2022-10-16T03:04:02.573Z,0.00
2022-10-16T03:05:02.638Z,0.00
2022-10-16T03:06:02.266Z,0.00
2022-10-16T03:07:02.556Z,0.00
2022-10-16T03:08:03.079Z,0.00
2022-10-16T03:09:02.633Z,0.00
2022-10-16T03:10:02.701Z,0.00
2022-10-16T03:11:02.937Z,0.00
2022-10-16T03:12:03.418Z,0.00
2022-10-16T03:13:03.078Z,0.00
2022-10-16T03:14:02.915Z,0.00
2022-10-16T03:15:03.448Z,0.00
2022-10-16T03:16:03.252Z,0.00
2022-10-16T03:17:02.134Z,0.00
2022-10-16T03:18:02.609Z,0.00
2022-10-16T03:19:02.514Z,0.00
2022-10-16T03:20:02.237Z,0.00
2022-10-16T03:21:02.804Z,0.00
2022-10-16T03:22:02.337Z,0.00
2022-10-16T03:23:02.807Z,0.00
2022-10-16T03:24:02.616Z,0.00
2022-10-16T03:25:02.393Z,0.00
2022-10-16T03:26:02.894Z,0.00
2022-10-16T03:27:02.904Z,0.00
2022-10-16T03:28:03.366Z,0.00
2022-10-16T03:29:03.045Z,0.00
2022-10-16T03:30:03.308Z,0.00
2022-10-16T03:31:02.883Z,0.00
2022-10-16T03:32:02.403Z,0.00
2022-10-16T03:33:02.883Z,0.00
2022-10-16T03:34:02.680Z,0.00
2022-10-16T03:35:02.473Z,0.00
2022-10-16T03:36:02.900Z,0.00
2022-10-16T03:37:02.811Z,0.00
2022-10-16T03:38:02.645Z,0.00
2022-10-16T03:39:03.141Z,0.00
2022-10-16T03:40:03.016Z,0.00
2022-10-16T03:41:03.141Z,0.00
2022-10-16T03:42:02.980Z,0.00
2022-10-16T03:43:03.662Z,0.00
2022-10-16T03:44:03.004Z,0.00
2022-10-16T03:45:03.474Z,0.00
2022-10-16T03:46:03.246Z,0.00
2022-10-16T03:47:02.575Z,0.00
2022-10-16T03:48:02.395Z,0.00
2022-10-16T03:49:04.836Z,0.00
2022-10-16T03:50:02.685Z,0.00
2022-10-16T03:51:02.232Z,0.00
2022-10-16T03:52:02.787Z,0.00
2022-10-16T03:53:02.673Z,0.00
2022-10-16T03:54:03.163Z,0.00
2022-10-16T03:55:03.279Z,0.00
2022-10-16T03:56:02.949Z,0.00
2022-10-16T03:57:03.124Z,0.00
2022-10-16T03:58:03.002Z,0.00
2022-10-16T03:59:03.558Z,0.00
2022-10-16T04:00:03.175Z,0.00
2022-10-16T04:01:03.149Z,0.00
2022-10-16T04:02:02.655Z,0.00
2022-10-16T04:03:02.544Z,0.00
2022-10-16T04:04:03.047Z,0.00
2022-10-16T04:05:02.946Z,0.00
2022-10-16T04:06:02.871Z,0.00
2022-10-16T04:07:02.299Z,0.00
2022-10-16T04:08:02.820Z,0.00
2022-10-16T04:09:02.357Z,0.00
2022-10-16T04:10:02.841Z,0.00
2022-10-16T04:11:02.487Z,0.00
2022-10-16T04:12:02.969Z,0.00
2022-10-16T04:13:02.761Z,0.00
2022-10-16T04:14:03.245Z,0.00
2022-10-16T04:15:02.972Z,0.00
2022-10-16T04:16:02.775Z,0.00
2022-10-16T04:17:02.063Z,0.00
2022-10-16T04:18:02.059Z,0.00
2022-10-16T04:19:02.889Z,0.00
2022-10-16T04:20:02.455Z,0.00
2022-10-16T04:21:02.140Z,0.00
2022-10-16T04:22:02.648Z,0.00
2022-10-16T04:23:02.635Z,0.00
2022-10-16T04:24:03.018Z,0.00
2022-10-16T04:25:02.572Z,0.00
2022-10-16T04:26:02.347Z,0.00
2022-10-16T04:27:02.926Z,0.00
2022-10-16T04:28:02.731Z,0.00
2022-10-16T04:29:03.307Z,0.00
2022-10-16T04:30:02.979Z,0.00
2022-10-16T04:31:02.762Z,0.00
2022-10-16T04:32:03.179Z,0.00
2022-10-16T04:33:03.447Z,0.00
2022-10-16T04:34:03.126Z,0.00
2022-10-16T04:35:02.894Z,0.00
2022-10-16T04:36:03.331Z,0.00
2022-10-16T04:37:02.977Z,0.00
2022-10-16T04:38:03.094Z,0.00
2022-10-16T04:39:02.844Z,0.00
2022-10-16T04:40:02.634Z,0.00
2022-10-16T04:41:03.005Z,0.00
2022-10-16T04:42:03.082Z,0.00
2022-10-16T04:43:02.937Z,0.00
2022-10-16T04:44:03.204Z,0.00
2022-10-16T04:45:03.158Z,0.00
2022-10-16T04:46:02.972Z,0.00
2022-10-16T04:47:02.534Z,0.00
2022-10-16T04:48:02.351Z,0.00
2022-10-16T04:49:02.791Z,0.00
2022-10-16T04:50:02.458Z,0.00
2022-10-16T04:51:02.359Z,0.00
2022-10-16T04:52:02.812Z,0.00
2022-10-16T04:53:02.695Z,0.00
2022-10-16T04:54:02.521Z,0.00
2022-10-16T04:55:02.451Z,0.00
2022-10-16T04:56:02.926Z,0.00
2022-10-16T04:57:02.492Z,0.00
2022-10-16T04:58:02.247Z,0.00
2022-10-16T04:59:02.128Z,0.00
2022-10-16T05:00:02.615Z,0.00
2022-10-16T05:01:02.128Z,0.00
2022-10-16T05:02:02.599Z,0.00
2022-10-16T05:03:02.471Z,0.00
2022-10-16T05:04:02.325Z,0.00
2022-10-16T05:05:02.208Z,0.00
2022-10-16T05:06:02.627Z,0.00
2022-10-16T05:07:02.722Z,0.00
2022-10-16T05:08:02.543Z,0.00
2022-10-16T05:09:02.330Z,0.00
2022-10-16T05:10:02.798Z,0.00
2022-10-16T05:11:02.548Z,0.00
2022-10-16T05:12:03.148Z,0.00
2022-10-16T05:13:02.954Z,0.00
2022-10-16T05:14:02.883Z,0.00
2022-10-16T05:15:02.727Z,0.00
2022-10-16T05:16:02.991Z,0.00
2022-10-16T05:17:02.175Z,0.00
2022-10-16T05:18:02.084Z,0.00
2022-10-16T05:19:26.250Z,0.00
2022-10-16T05:20:02.464Z,0.00
2022-10-16T05:21:02.298Z,0.00
2022-10-16T05:22:02.313Z,0.00
2022-10-16T05:23:02.723Z,0.00
2022-10-16T05:24:02.375Z,0.00
2022-10-16T05:25:02.808Z,0.00
2022-10-16T05:26:02.608Z,0.00
2022-10-16T05:27:03.223Z,4.00
2022-10-16T05:28:03.021Z,4.00
2022-10-16T05:29:02.989Z,0.00
2022-10-16T05:30:02.845Z,4.00
2022-10-16T05:31:02.756Z,4.00
2022-10-16T05:32:03.338Z,4.00
2022-10-16T05:33:03.200Z,4.00
2022-10-16T05:34:03.075Z,4.00
2022-10-16T05:35:02.921Z,4.00
2022-10-16T05:36:03.451Z,4.00
2022-10-16T05:37:02.850Z,8.00
2022-10-16T05:38:02.372Z,8.00
2022-10-16T05:39:02.894Z,12.00
2022-10-16T05:40:02.510Z,16.00
2022-10-16T05:41:02.361Z,20.00
2022-10-16T05:42:02.915Z,24.00
2022-10-16T05:43:02.522Z,24.00
2022-10-16T05:44:02.774Z,28.00
2022-10-16T05:45:02.443Z,32.00
2022-10-16T05:46:02.351Z,32.00
2022-10-16T05:47:02.474Z,36.00
2022-10-16T05:48:02.341Z,40.00
2022-10-16T05:49:02.206Z,44.00
2022-10-16T05:50:02.555Z,44.00
2022-10-16T05:51:02.434Z,48.00
2022-10-16T05:52:02.366Z,56.00
2022-10-16T05:53:02.474Z,56.00
2022-10-16T05:54:03.019Z,64.00
2022-10-16T05:55:02.614Z,72.00
2022-10-16T05:56:02.464Z,84.00
2022-10-16T05:57:02.081Z,92.00
2022-10-16T05:58:02.606Z,104.00
2022-10-16T05:59:02.477Z,116.00
2022-10-16T06:00:02.359Z,120.00
2022-10-16T06:01:02.396Z,140.00
2022-10-16T06:02:02.506Z,160.00
2022-10-16T06:03:03.064Z,188.00
2022-10-16T06:04:02.740Z,216.00
2022-10-16T06:05:02.699Z,252.00
2022-10-16T06:06:02.588Z,284.00
2022-10-16T06:07:02.930Z,308.00
2022-10-16T06:08:02.773Z,340.00
2022-10-16T06:09:02.594Z,376.00
2022-10-16T06:10:02.546Z,432.00
2022-10-16T06:11:03.135Z,484.00
2022-10-16T06:12:02.794Z,532.00
2022-10-16T06:13:03.355Z,588.00
2022-10-16T06:14:03.053Z,656.00
2022-10-16T06:15:03.036Z,716.00
2022-10-16T06:16:02.976Z,716.00
2022-10-16T06:17:02.917Z,680.00
2022-10-16T06:18:02.872Z,632.00
2022-10-16T06:19:02.943Z,592.00
2022-10-16T06:20:02.924Z,584.00
2022-10-16T06:21:02.853Z,608.00
2022-10-16T06:22:02.609Z,680.00
2022-10-16T06:23:02.753Z,768.00
2022-10-16T06:24:02.786Z,800.00
2022-10-16T06:25:02.803Z,792.00
2022-10-16T06:26:02.793Z,756.00
2022-10-16T06:27:02.780Z,720.00
2022-10-16T06:28:02.737Z,684.00
2022-10-16T06:29:02.843Z,652.00
2022-10-16T06:30:02.711Z,632.00
2022-10-16T06:31:05.629Z,636.00
2022-10-16T06:32:02.336Z,664.00
2022-10-16T06:33:02.259Z,684.00
2022-10-16T06:34:02.219Z,700.00
2022-10-16T06:35:02.851Z,712.00
2022-10-16T06:36:02.558Z,744.00
2022-10-16T06:37:02.589Z,792.00
2022-10-16T06:38:02.759Z,872.00
2022-10-16T06:39:02.804Z,972.00
2022-10-16T06:40:02.692Z,1036.00
2022-10-16T06:41:02.635Z,1068.00
2022-10-16T06:42:02.619Z,1096.00
2022-10-16T06:43:02.564Z,1124.00
2022-10-16T06:44:02.551Z,1132.00
2022-10-16T06:45:02.499Z,1128.00
2022-10-16T06:46:02.436Z,1128.00
2022-10-16T06:47:03.097Z,1156.00
2022-10-16T06:48:03.031Z,1168.00
2022-10-16T06:49:03.079Z,1216.00
2022-10-16T06:50:03.008Z,1320.00
2022-10-16T06:51:02.965Z,1472.00
2022-10-16T06:52:02.661Z,1648.00
2022-10-16T06:53:02.635Z,1884.00
2022-10-16T06:54:04.116Z,2160.00
2022-10-16T06:55:02.936Z,2356.00
2022-10-16T06:56:02.616Z,2456.00
2022-10-16T06:57:03.163Z,2528.00
2022-10-16T06:58:03.439Z,2592.00
2022-10-16T06:59:03.165Z,2788.00
2022-10-16T07:00:03.048Z,3124.00
2022-10-16T07:01:03.204Z,3324.00
2022-10-16T07:02:02.233Z,3416.00
2022-10-16T07:03:02.202Z,3484.00
2022-10-16T07:04:02.106Z,3460.00
2022-10-16T07:05:02.050Z,3476.00
2022-10-16T07:06:02.023Z,3596.00
2022-10-16T07:07:05.621Z,3752.00
2022-10-16T07:08:03.078Z,3996.00
2022-10-16T07:09:02.800Z,4016.00
2022-10-16T07:10:02.743Z,3892.00
2022-10-16T07:11:02.697Z,3812.00
2022-10-16T07:12:02.371Z,3700.00
2022-10-16T07:13:02.297Z,3612.00
2022-10-16T07:14:02.710Z,3528.00
2022-10-16T07:15:02.431Z,3400.00
2022-10-16T07:16:02.396Z,3052.00
2022-10-16T07:17:02.208Z,2708.00
2022-10-16T07:18:02.158Z,2588.00
2022-10-16T07:19:02.819Z,2688.00
2022-10-16T07:20:02.396Z,2900.00
2022-10-16T07:21:02.289Z,3312.00
2022-10-16T07:22:02.915Z,3872.00
2022-10-16T07:23:02.918Z,4324.00
2022-10-16T07:24:02.677Z,4640.00
2022-10-16T07:25:02.700Z,4816.00
2022-10-16T07:26:03.011Z,4872.00
2022-10-16T07:27:02.999Z,4844.00
2022-10-16T07:28:02.961Z,4756.00
2022-10-16T07:29:03.098Z,4744.00
2022-10-16T07:30:05.163Z,4776.00
2022-10-16T07:31:03.118Z,4888.00
2022-10-16T07:32:03.095Z,5096.00
2022-10-16T07:33:03.262Z,5056.00
2022-10-16T07:34:02.777Z,4948.00
2022-10-16T07:35:02.765Z,4692.00
2022-10-16T07:36:03.423Z,4560.00
2022-10-16T07:37:02.833Z,4596.00
2022-10-16T07:38:02.436Z,4728.00
2022-10-16T07:39:03.101Z,4712.00
2022-10-16T07:40:03.037Z,4500.00
2022-10-16T07:41:02.733Z,4408.00
2022-10-16T07:42:02.455Z,4356.00
2022-10-16T07:43:02.030Z,4404.00
2022-10-16T07:44:02.449Z,4460.00
2022-10-16T07:45:02.580Z,4480.00
2022-10-16T07:46:05.511Z,4412.00
2022-10-16T07:47:02.661Z,4340.00
2022-10-16T07:48:02.660Z,4248.00
2022-10-16T07:49:02.785Z,4356.00
2022-10-16T07:50:02.523Z,4576.00
2022-10-16T07:51:02.499Z,4720.00
2022-10-16T07:52:03.152Z,4692.00
2022-10-16T07:53:03.131Z,4800.00
2022-10-16T07:54:03.103Z,4912.00
2022-10-16T07:55:03.157Z,5192.00
2022-10-16T07:56:03.228Z,5476.00
2022-10-16T07:57:03.318Z,5608.00
2022-10-16T07:58:03.065Z,5600.00
2022-10-16T07:59:02.872Z,5580.00
2022-10-16T08:00:02.887Z,5468.00
2022-10-16T08:01:03.285Z,5372.00
2022-10-16T08:02:02.371Z,5396.00
2022-10-16T08:03:02.401Z,5348.00
2022-10-16T08:04:02.375Z,5220.00
2022-10-16T08:05:02.112Z,5256.00
2022-10-16T08:06:02.195Z,5400.00
2022-10-16T08:07:02.916Z,5288.00
2022-10-16T08:08:02.970Z,5116.00
2022-10-16T08:09:02.962Z,4668.00
2022-10-16T08:10:03.038Z,4296.00
2022-10-16T08:11:03.055Z,4308.00
2022-10-16T08:12:02.683Z,4192.00
2022-10-16T08:13:02.435Z,4092.00
2022-10-16T08:14:02.475Z,3952.00
2022-10-16T08:15:02.624Z,3700.00
2022-10-16T08:16:02.335Z,3808.00
2022-10-16T08:17:03.046Z,3604.00
2022-10-16T08:18:02.763Z,3772.00
2022-10-16T08:19:02.822Z,3772.00
2022-10-16T08:20:02.795Z,5772.00
2022-10-16T08:21:02.876Z,3840.00
2022-10-16T08:22:03.286Z,3680.00
2022-10-16T08:23:03.067Z,3964.00
2022-10-16T08:24:03.142Z,3864.00
2022-10-16T08:25:03.044Z,4240.00
2022-10-16T08:26:03.235Z,6080.00
2022-10-16T08:27:02.789Z,8420.00
2022-10-16T08:28:02.593Z,7108.00
2022-10-16T08:29:02.582Z,6676.00
2022-10-16T08:30:02.670Z,7732.00
2022-10-16T08:31:02.773Z,8484.00
2022-10-16T08:32:03.130Z,6348.00
2022-10-16T08:33:03.090Z,5704.00
2022-10-16T08:34:03.140Z,5252.00
2022-10-16T08:35:02.883Z,4456.00
2022-10-16T08:36:02.921Z,4768.00
2022-10-16T08:37:02.605Z,4852.00
2022-10-16T08:38:02.267Z,5308.00
2022-10-16T08:39:02.289Z,9356.00
2022-10-16T08:40:02.207Z,10040.00
2022-10-16T08:41:02.158Z,11124.00
2022-10-16T08:42:02.851Z,11776.00
2022-10-16T08:43:02.590Z,7888.00
2022-10-16T08:44:02.539Z,6932.00
2022-10-16T08:45:02.560Z,5988.00
2022-10-16T08:46:02.433Z,6028.00
2022-10-16T08:47:03.147Z,6216.00
2022-10-16T08:48:02.677Z,6468.00
2022-10-16T08:49:02.617Z,6308.00
2022-10-16T08:50:02.530Z,6216.00
2022-10-16T08:51:03.153Z,5804.00
2022-10-16T08:52:01.926Z,5176.00
2022-10-16T08:53:01.894Z,4816.00
2022-10-16T08:54:01.910Z,4904.00
2022-10-16T08:55:01.905Z,5196.00
2022-10-16T08:56:02.492Z,5344.00
2022-10-16T08:57:02.533Z,5424.00
2022-10-16T08:58:02.834Z,5236.00
2022-10-16T08:59:03.173Z,5164.00
2022-10-16T09:00:03.085Z,4880.00
2022-10-16T09:01:03.031Z,4868.00
2022-10-16T09:02:02.036Z,5004.00
2022-10-16T09:03:02.509Z,5120.00
2022-10-16T09:04:02.343Z,5536.00
2022-10-16T09:05:02.292Z,5680.00
2022-10-16T09:06:02.182Z,5808.00
2022-10-16T09:07:02.182Z,6368.00
2022-10-16T09:08:03.833Z,6204.00
2022-10-16T09:09:02.436Z,6372.00
2022-10-16T09:10:02.378Z,6440.00
2022-10-16T09:11:02.293Z,6960.00
2022-10-16T09:12:02.198Z,7188.00
2022-10-16T09:13:02.793Z,7336.00
2022-10-16T09:14:02.559Z,7468.00
2022-10-16T09:15:02.461Z,7524.00
2022-10-16T09:16:02.439Z,7360.00
2022-10-16T09:17:02.413Z,7528.00
2022-10-16T09:18:02.421Z,7856.00
2022-10-16T09:19:02.340Z,8228.00
2022-10-16T09:20:02.941Z,8216.00
2022-10-16T09:21:02.526Z,8308.00
2022-10-16T09:22:02.454Z,8852.00
2022-10-16T09:23:03.048Z,8168.00
2022-10-16T09:24:02.642Z,7600.00
2022-10-16T09:25:02.575Z,7388.00
2022-10-16T09:26:02.595Z,7596.00
2022-10-16T09:27:02.613Z,7732.00
2022-10-16T09:28:02.703Z,8096.00
2022-10-16T09:29:02.715Z,7956.00
2022-10-16T09:30:02.691Z,8268.00
2022-10-16T09:31:02.687Z,8896.00
2022-10-16T09:32:02.267Z,8804.00
2022-10-16T09:33:02.301Z,8332.00
2022-10-16T09:34:02.266Z,8532.00
2022-10-16T09:35:02.205Z,9152.00
2022-10-16T09:36:02.148Z,7376.00
2022-10-16T09:37:02.846Z,5824.00
2022-10-16T09:38:02.779Z,4868.00
2022-10-16T09:39:02.783Z,4440.00
2022-10-16T09:40:05.310Z,4880.00
2022-10-16T09:41:03.659Z,5012.00
2022-10-16T09:42:03.088Z,4728.00
2022-10-16T09:43:03.123Z,4524.00
2022-10-16T09:44:03.065Z,4112.00
2022-10-16T09:45:02.977Z,3724.00
2022-10-16T09:46:03.626Z,3616.00
2022-10-16T09:47:02.430Z,3844.00
2022-10-16T09:48:02.443Z,3796.00
2022-10-16T09:49:02.458Z,4516.00
2022-10-16T09:50:02.283Z,5436.00
2022-10-16T09:51:02.905Z,5496.00
2022-10-16T09:52:02.671Z,5372.00
2022-10-16T09:53:02.833Z,5824.00
2022-10-16T09:54:02.868Z,6292.00
2022-10-16T09:55:02.863Z,5824.00
2022-10-16T09:56:02.887Z,7984.00
2022-10-16T09:57:02.790Z,14176.00
2022-10-16T09:58:02.836Z,9072.00
2022-10-16T09:59:03.174Z,10672.00
2022-10-16T10:00:02.812Z,10748.00
2022-10-16T10:01:02.784Z,7968.00
2022-10-16T10:02:02.004Z,11648.00
2022-10-16T10:03:02.323Z,17504.00
2022-10-16T10:04:02.419Z,17792.00
2022-10-16T10:05:02.095Z,17568.00
2022-10-16T10:06:02.377Z,17088.00
2022-10-16T10:07:02.223Z,18464.00
2022-10-16T10:08:02.038Z,18784.00
2022-10-16T10:09:02.062Z,19552.00
2022-10-16T10:10:02.085Z,9300.00
2022-10-16T10:11:02.342Z,15360.00
2022-10-16T10:13:02.502Z,10896.00
2022-10-16T10:14:02.564Z,11076.00
2022-10-16T10:15:02.695Z,13632.00
2022-10-16T10:16:02.815Z,13004.00
2022-10-16T10:17:02.690Z,15168.00
2022-10-16T10:18:02.917Z,15744.00
2022-10-16T10:19:03.034Z,14560.00
2022-10-16T10:20:02.877Z,13800.00
2022-10-16T10:22:02.373Z,10848.00
2022-10-16T10:23:02.484Z,10192.00
2022-10-16T10:24:02.525Z,12668.00
2022-10-16T10:25:02.669Z,11932.00
2022-10-16T10:26:02.498Z,13432.00
2022-10-16T10:27:02.703Z,6708.00
2022-10-16T10:28:02.820Z,11048.00
2022-10-16T10:29:02.899Z,9544.00
2022-10-16T10:30:03.086Z,12780.00
2022-10-16T10:31:02.905Z,11484.00
2022-10-16T10:32:02.173Z,12952.00
2022-10-16T10:33:02.204Z,12676.00
2022-10-16T10:34:01.985Z,12820.00
2022-10-16T10:35:02.047Z,11076.00
2022-10-16T10:36:02.111Z,8572.00
2022-10-16T10:37:02.562Z,9068.00
2022-10-16T10:38:02.640Z,9504.00
2022-10-16T10:39:02.649Z,9688.00
2022-10-16T10:40:02.795Z,9236.00
2022-10-16T10:41:02.588Z,8280.00
2022-10-16T10:42:02.694Z,8916.00
2022-10-16T10:43:02.538Z,8984.00
2022-10-16T10:44:02.608Z,8312.00
2022-10-16T10:45:02.759Z,9012.00
2022-10-16T10:46:02.882Z,10460.00
2022-10-16T10:47:03.188Z,8224.00
2022-10-16T10:48:03.293Z,7828.00
2022-10-16T10:49:03.003Z,9864.00
2022-10-16T10:50:03.137Z,7444.00
2022-10-16T10:51:03.019Z,7200.00
2022-10-16T10:52:02.998Z,6916.00
2022-10-16T10:53:03.131Z,7156.00
2022-10-16T10:54:03.328Z,12928.00
2022-10-16T10:55:03.315Z,8280.00
2022-10-16T10:56:03.191Z,9612.00
2022-10-16T10:57:02.753Z,14496.00
2022-10-16T10:58:02.966Z,17152.00
2022-10-16T10:59:02.829Z,17184.00
2022-10-16T11:00:02.918Z,17792.00
2022-10-16T11:01:02.953Z,14368.00
2022-10-16T11:02:02.818Z,11980.00
2022-10-16T11:03:02.965Z,12364.00
2022-10-16T11:04:02.814Z,18304.00
2022-10-16T11:05:02.896Z,17664.00
2022-10-16T11:06:03.013Z,19520.00
2022-10-16T11:07:02.476Z,22240.00
2022-10-16T11:08:02.349Z,24320.00
2022-10-16T11:09:02.326Z,24640.00
2022-10-16T11:10:02.528Z,24832.00
2022-10-16T11:11:02.170Z,23936.00
2022-10-16T11:12:03.039Z,24000.00
2022-10-16T11:13:03.088Z,25376.00
2022-10-16T11:14:02.663Z,24384.00
2022-10-16T11:15:02.809Z,26400.00
2022-10-16T11:16:02.981Z,8484.00
2022-10-16T11:17:03.084Z,7212.00
2022-10-16T11:18:03.248Z,7628.00
2022-10-16T11:19:03.069Z,17600.00
2022-10-16T11:20:03.269Z,19776.00
2022-10-16T11:21:03.034Z,17792.00
2022-10-16T11:22:02.289Z,9996.00
2022-10-16T11:23:02.363Z,7760.00
2022-10-16T11:24:02.322Z,8172.00
2022-10-16T11:25:01.785Z,9192.00
2022-10-16T11:26:01.922Z,6768.00
2022-10-16T11:27:02.634Z,6144.00
2022-10-16T11:28:02.920Z,6532.00
2022-10-16T11:29:02.836Z,6412.00
2022-10-16T11:30:02.764Z,5840.00
2022-10-16T11:31:02.809Z,5732.00
2022-10-16T11:32:03.299Z,5092.00
2022-10-16T11:33:03.447Z,4560.00
2022-10-16T11:35:03.343Z,4416.00
2022-10-16T11:36:02.780Z,4504.00
2022-10-16T11:37:02.544Z,4476.00
2022-10-16T11:38:02.619Z,4712.00
2022-10-16T11:39:02.508Z,5244.00
2022-10-16T11:40:02.567Z,6124.00
2022-10-16T11:41:02.294Z,6840.00
2022-10-16T11:42:03.141Z,6968.00
2022-10-16T11:43:02.864Z,6852.00
2022-10-16T11:44:02.962Z,6564.00
2022-10-16T11:45:03.091Z,6552.00
2022-10-16T11:46:05.396Z,5920.00
2022-10-16T11:47:28.709Z,5344.00
2022-10-16T11:48:03.050Z,4872.00
2022-10-16T11:49:03.179Z,5084.00
2022-10-16T11:50:03.295Z,7440.00
2022-10-16T11:51:03.230Z,6484.00
2022-10-16T11:52:02.685Z,7304.00
2022-10-16T11:53:02.506Z,5224.00
2022-10-16T11:54:02.565Z,4956.00
2022-10-16T11:55:02.610Z,4920.00
2022-10-16T11:56:02.037Z,5696.00
2022-10-16T11:57:02.853Z,5884.00
2022-10-16T11:58:02.696Z,5788.00
2022-10-16T11:59:02.777Z,5380.00
2022-10-16T12:00:02.780Z,5140.00
2022-10-16T12:01:02.869Z,5780.00
2022-10-16T12:02:01.660Z,6228.00
2022-10-16T12:03:01.693Z,6552.00
2022-10-16T12:04:01.768Z,6128.00
2022-10-16T12:05:01.834Z,6340.00
2022-10-16T12:06:01.972Z,6692.00
2022-10-16T12:07:02.185Z,6828.00
2022-10-16T12:08:02.261Z,7304.00
2022-10-16T12:09:02.300Z,7672.00
2022-10-16T12:10:02.440Z,8172.00
2022-10-16T12:11:02.448Z,8508.00
2022-10-16T12:12:02.457Z,8680.00
2022-10-16T12:13:03.125Z,8428.00
2022-10-16T12:14:02.869Z,8756.00
2022-10-16T12:15:25.830Z,8680.00
2022-10-16T12:16:02.911Z,8248.00
2022-10-16T12:17:02.901Z,8064.00
2022-10-16T12:18:01.947Z,7292.00
2022-10-16T12:19:01.961Z,6220.00
2022-10-16T12:20:02.134Z,5344.00
2022-10-16T12:21:02.224Z,5032.00
2022-10-16T12:22:02.298Z,4920.00
2022-10-16T12:23:02.765Z,5048.00
2022-10-16T12:24:02.797Z,5264.00
2022-10-16T12:25:02.878Z,5208.00
2022-10-16T12:26:02.975Z,5392.00
2022-10-16T12:27:02.975Z,5576.00
2022-10-16T12:28:02.759Z,5660.00
2022-10-16T12:29:02.619Z,5476.00
2022-10-16T12:30:02.759Z,5576.00
2022-10-16T12:31:02.541Z,7240.00
2022-10-16T12:32:02.585Z,6164.00
2022-10-16T12:33:02.593Z,6412.00
2022-10-16T12:34:02.523Z,7480.00
2022-10-16T12:35:02.558Z,8092.00
2022-10-16T12:36:02.555Z,7600.00
2022-10-16T12:37:02.589Z,7796.00
2022-10-16T12:38:02.477Z,8120.00
2022-10-16T12:39:02.561Z,8944.00
2022-10-16T12:40:02.704Z,9296.00